createdAt,value
2018-05-29T00:01:32.078Z,95362.43
2018-05-29T00:04:00.635Z,95362.41
2018-05-29T00:06:29.230Z,95360.47
2018-05-29T00:08:57.779Z,95357.78
2018-05-29T00:11:26.411Z,95358.47
2018-05-29T00:13:54.968Z,95353.02
2018-05-29T00:16:23.766Z,95349.30
2018-05-29T00:18:52.310Z,95355.23
2018-05-29T00:21:20.869Z,95353.13
2018-05-29T00:23:49.441Z,95343.83
2018-05-29T00:26:18.136Z,95348.52
2018-05-29T00:28:46.680Z,95348.23
2018-05-29T00:31:15.227Z,95353.13
2018-05-29T00:33:43.783Z,95348.29
2018-05-29T00:36:12.344Z,95347.30
2018-05-29T00:38:40.906Z,95349.27
2018-05-29T00:41:09.468Z,95344.67
2018-05-29T00:43:38.033Z,95342.14
2018-05-29T00:46:06.586Z,95338.28
2018-05-29T00:48:35.139Z,95336.67
2018-05-29T00:51:03.697Z,95337.02
2018-05-29T00:53:32.245Z,95337.77
2018-05-29T00:56:00.818Z,95335.18
2018-05-29T00:58:29.381Z,95337.72
2018-05-29T01:00:57.936Z,95334.85
2018-05-29T01:03:26.487Z,95331.94
2018-05-29T01:05:55.050Z,95329.95
2018-05-29T01:08:23.628Z,95330.50
2018-05-29T01:10:52.416Z,95326.89
2018-05-29T01:13:20.969Z,95327.30
2018-05-29T01:15:49.526Z,95320.00
2018-05-29T01:18:18.083Z,95320.36
2018-05-29T01:23:20.524Z,95324.62
2018-05-29T01:25:49.115Z,95329.02
2018-05-29T01:28:17.663Z,95326.36
2018-05-29T01:30:46.206Z,95329.76
2018-05-29T01:33:14.755Z,95326.36
2018-05-29T01:35:43.315Z,95324.45
2018-05-29T01:38:11.869Z,95325.62
2018-05-29T01:40:40.415Z,95326.48
2018-05-29T01:43:09.043Z,95326.62
2018-05-29T01:45:37.597Z,95326.03
2018-05-29T01:48:06.152Z,95332.30
2018-05-29T01:50:34.698Z,95326.00
2018-05-29T01:53:03.284Z,95323.83
2018-05-29T01:55:31.849Z,95322.91
2018-05-29T01:58:00.411Z,95332.86
2018-05-29T02:00:28.972Z,95331.28
2018-05-29T02:02:57.523Z,95337.35
2018-05-29T02:05:26.084Z,95338.60
2018-05-29T02:07:54.642Z,95341.36
2018-05-29T02:10:23.208Z,95333.81
2018-05-29T02:12:51.755Z,95334.32
2018-05-29T02:15:20.332Z,95336.30
2018-05-29T02:17:48.886Z,95337.13
2018-05-29T02:20:17.483Z,95334.91
2018-05-29T02:23:02.613Z,95338.28
2018-05-29T02:25:31.160Z,95342.13
2018-05-29T02:27:59.710Z,95345.41
2018-05-29T02:30:28.320Z,95351.59
2018-05-29T02:32:56.874Z,95347.95
2018-05-29T02:35:25.423Z,95361.27
2018-05-29T02:37:53.985Z,95366.69
2018-05-29T02:40:22.539Z,95370.17
2018-05-29T02:42:51.103Z,95371.77
2018-05-29T02:45:19.670Z,95373.61
2018-05-29T02:47:48.227Z,95376.09
2018-05-29T02:50:16.783Z,95381.02
2018-05-29T02:52:45.352Z,95377.45
2018-05-29T02:55:13.906Z,95380.53
2018-05-29T02:57:42.464Z,95384.50
2018-05-29T03:00:11.061Z,95377.27
2018-05-29T03:02:39.611Z,95381.31
2018-05-29T03:05:08.154Z,95376.63
2018-05-29T03:07:36.777Z,95385.23
2018-05-29T03:10:05.026Z,95389.14
2018-05-29T03:12:33.770Z,95392.63
2018-05-29T03:15:02.325Z,95394.74
2018-05-29T03:17:30.881Z,95388.18
2018-05-29T03:19:59.442Z,95395.17
2018-05-29T03:22:27.997Z,95390.40
2018-05-29T03:24:56.588Z,95392.53
2018-05-29T03:27:25.179Z,95392.20
2018-05-29T03:29:53.732Z,95395.61
2018-05-29T03:32:22.311Z,95395.16
2018-05-29T03:34:50.876Z,95392.38
2018-05-29T03:37:19.436Z,95394.23
2018-05-29T03:39:47.999Z,95401.02
2018-05-29T03:42:16.552Z,95407.47
2018-05-29T03:44:45.151Z,95400.58
2018-05-29T03:47:13.732Z,95404.84
2018-05-29T03:49:42.298Z,95398.47
2018-05-29T03:52:10.864Z,95401.98
2018-05-29T03:54:39.450Z,95396.48
2018-05-29T03:57:08.012Z,95401.77
2018-05-29T03:59:36.559Z,95395.48
2018-05-29T04:02:04.779Z,95396.31
2018-05-29T04:04:33.347Z,95396.13
2018-05-29T04:07:01.894Z,95391.95
2018-05-29T04:09:30.501Z,95393.83
2018-05-29T04:12:00.728Z,95402.19
2018-05-29T04:14:29.293Z,95398.30
2018-05-29T04:16:57.874Z,95393.16
2018-05-29T04:19:26.605Z,95399.31
2018-05-29T04:21:54.927Z,95397.15
2018-05-29T04:24:23.483Z,95391.71
2018-05-29T04:26:52.040Z,95396.47
2018-05-29T04:29:20.596Z,95391.25
2018-05-29T04:31:49.255Z,95393.27
2018-05-29T04:34:17.814Z,95395.19
2018-05-29T04:36:46.372Z,95394.19
2018-05-29T04:39:14.976Z,95405.92
2018-05-29T04:41:43.554Z,95405.49
2018-05-29T04:44:12.325Z,95400.52
2018-05-29T04:46:40.880Z,95399.33
2018-05-29T04:49:09.512Z,95402.23
2018-05-29T04:51:38.063Z,95392.44
2018-05-29T04:54:06.655Z,95392.66
2018-05-29T04:56:35.314Z,95386.38
2018-05-29T04:59:04.059Z,95390.14
2018-05-29T05:01:32.613Z,95392.41
2018-05-29T05:04:01.255Z,95391.48
2018-05-29T05:06:29.847Z,95395.76
2018-05-29T05:08:58.476Z,95394.83
2018-05-29T05:11:26.852Z,95388.69
2018-05-29T05:13:55.438Z,95373.93
2018-05-29T05:16:23.999Z,95375.35
2018-05-29T05:18:52.591Z,95386.22
2018-05-29T05:21:21.190Z,95381.92
2018-05-29T05:23:49.747Z,95385.74
2018-05-29T05:26:18.351Z,95381.43
2018-05-29T05:28:46.915Z,95378.52
2018-05-29T05:31:15.524Z,95382.55
2018-05-29T05:33:44.091Z,95379.23
2018-05-29T05:36:12.639Z,95370.06
2018-05-29T05:38:41.230Z,95372.12
2018-05-29T05:41:09.775Z,95375.33
2018-05-29T05:43:38.389Z,95371.84
2018-05-29T05:46:07.013Z,95375.05
2018-05-29T05:48:35.713Z,95377.50
2018-05-29T05:51:04.274Z,95376.05
2018-05-29T05:53:32.833Z,95379.85
2018-05-29T05:56:01.405Z,95379.84
2018-05-29T05:58:29.966Z,95381.17
2018-05-29T06:00:58.511Z,95385.05
2018-05-29T06:03:27.081Z,95384.52
2018-05-29T06:05:55.635Z,95388.16
2018-05-29T06:08:24.380Z,95385.39
2018-05-29T06:10:52.995Z,95380.33
2018-05-29T06:13:21.553Z,95382.94
2018-05-29T06:15:50.111Z,95380.90
2018-05-29T06:18:18.708Z,95381.84
2018-05-29T06:20:47.269Z,95379.60
2018-05-29T06:23:15.824Z,95386.95
2018-05-29T06:25:44.388Z,95377.68
2018-05-29T06:28:12.978Z,95379.89
2018-05-29T06:30:41.565Z,95380.27
2018-05-29T06:33:10.168Z,95372.84
2018-05-29T06:35:38.782Z,95380.61
2018-05-29T06:38:07.558Z,95375.40
2018-05-29T06:40:36.169Z,95378.92
2018-05-29T06:43:04.399Z,95387.88
2018-05-29T06:45:32.967Z,95380.33
2018-05-29T06:48:01.582Z,95380.63
2018-05-29T06:50:30.143Z,95381.53
2018-05-29T06:52:58.695Z,95378.22
2018-05-29T06:55:27.289Z,95374.34
2018-05-29T06:57:55.847Z,95380.36
2018-05-29T07:00:24.412Z,95373.87
2018-05-29T07:02:53.001Z,95371.77
2018-05-29T07:05:21.593Z,95378.62
2018-05-29T07:07:50.162Z,95376.21
2018-05-29T07:10:18.711Z,95377.48
2018-05-29T07:12:47.288Z,95370.72
2018-05-29T07:15:15.900Z,95365.56
2018-05-29T07:17:44.493Z,95364.36
2018-05-29T07:20:13.074Z,95366.94
2018-05-29T07:22:41.631Z,95361.82
2018-05-29T07:25:10.218Z,95367.16
2018-05-29T07:27:38.811Z,95372.98
2018-05-29T07:30:07.436Z,95371.06
2018-05-29T07:32:36.027Z,95370.13
2018-05-29T07:35:04.605Z,95364.45
2018-05-29T07:37:33.175Z,95358.03
2018-05-29T07:40:01.732Z,95358.63
2018-05-29T07:42:30.337Z,95357.98
2018-05-29T07:44:58.933Z,95365.70
2018-05-29T07:47:27.527Z,95363.15
2018-05-29T07:49:56.126Z,95362.44
2018-05-29T07:52:24.708Z,95360.58
2018-05-29T07:54:53.375Z,95361.02
2018-05-29T07:57:22.021Z,95357.09
2018-05-29T07:59:51.029Z,95343.34
2018-05-29T08:02:19.623Z,95351.86
2018-05-29T08:04:48.220Z,95350.19
2018-05-29T08:07:17.022Z,95344.91
2018-05-29T08:09:45.611Z,95343.57
2018-05-29T08:12:14.181Z,95348.49
2018-05-29T08:14:42.787Z,95347.20
2018-05-29T08:17:11.343Z,95349.88
2018-05-29T08:19:40.142Z,95352.67
2018-05-29T08:22:08.738Z,95345.30
2018-05-29T08:24:37.366Z,95349.95
2018-05-29T08:27:06.092Z,95344.84
2018-05-29T08:29:34.664Z,95341.83
2018-05-29T08:32:03.231Z,95330.39
2018-05-29T08:34:31.896Z,95341.89
2018-05-29T08:37:00.516Z,95346.32
2018-05-29T08:39:29.234Z,95329.32
2018-05-29T08:41:57.989Z,95325.89
2018-05-29T08:44:26.645Z,95333.16
2018-05-29T08:46:55.339Z,95332.55
2018-05-29T08:49:23.951Z,95329.56
2018-05-29T08:51:52.634Z,95320.81
2018-05-29T08:54:21.224Z,95327.34
2018-05-29T08:56:49.963Z,95326.30
2018-05-29T08:59:18.901Z,95320.14
2018-05-29T09:01:47.475Z,95322.41
2018-05-29T09:04:16.136Z,95318.36
2018-05-29T09:06:44.876Z,95311.86
2018-05-29T09:09:13.483Z,95316.66
2018-05-29T09:11:42.210Z,95305.95
2018-05-29T09:14:10.891Z,95309.58
2018-05-29T09:16:39.479Z,95312.56
2018-05-29T09:19:08.036Z,95311.09
2018-05-29T09:21:36.708Z,95309.19
2018-05-29T09:24:05.292Z,95308.89
2018-05-29T09:26:33.887Z,95311.22
2018-05-29T09:29:02.569Z,95304.61
2018-05-29T09:31:31.143Z,95301.27
2018-05-29T09:33:59.704Z,95300.63
2018-05-29T09:36:28.377Z,95294.65
2018-05-29T09:38:57.000Z,95288.67
2018-05-29T09:41:25.700Z,95293.94
2018-05-29T09:43:54.453Z,95284.30
2018-05-29T09:46:23.122Z,95291.58
2018-05-29T09:48:51.693Z,95280.61
2018-05-29T09:51:20.397Z,95290.45
2018-05-29T09:53:49.199Z,95289.97
2018-05-29T09:56:17.902Z,95287.84
2018-05-29T09:58:46.579Z,95290.22
2018-05-29T10:01:15.201Z,95285.80
2018-05-29T10:03:43.780Z,95289.16
2018-05-29T10:06:12.441Z,95277.11
2018-05-29T10:08:41.028Z,95286.50
2018-05-29T10:11:09.611Z,95277.92
2018-05-29T10:13:38.465Z,95277.92
2018-05-29T10:16:07.156Z,95278.20
2018-05-29T10:18:35.816Z,95270.95
2018-05-29T10:21:04.520Z,95274.56
2018-05-29T10:23:33.133Z,95272.55
2018-05-29T10:26:01.786Z,95269.75
2018-05-29T10:28:30.360Z,95280.88
2018-05-29T10:30:58.631Z,95271.38
2018-05-29T10:33:27.481Z,95278.91
2018-05-29T10:35:56.205Z,95263.77
2018-05-29T10:38:24.887Z,95262.51
2018-05-29T10:40:53.577Z,95263.05
2018-05-29T10:43:22.267Z,95249.06
2018-05-29T10:45:50.995Z,95256.12
2018-05-29T10:48:19.674Z,95250.67
2018-05-29T10:50:48.362Z,95254.48
2018-05-29T10:53:16.944Z,95247.34
2018-05-29T10:55:45.568Z,95246.34
2018-05-29T10:58:14.277Z,95240.81
2018-05-29T11:00:42.901Z,95237.57
2018-05-29T11:03:11.471Z,95242.77
2018-05-29T11:05:40.136Z,95232.05
2018-05-29T11:08:08.712Z,95226.15
2018-05-29T11:10:37.272Z,95217.84
2018-05-29T11:13:05.828Z,95225.18
2018-05-29T11:15:34.400Z,95231.84
2018-05-29T11:18:02.965Z,95231.27
2018-05-29T11:20:31.523Z,95218.58
2018-05-29T11:23:00.081Z,95227.62
2018-05-29T11:25:28.649Z,95226.96
2018-05-29T11:27:57.213Z,95220.01
2018-05-29T11:30:25.803Z,95213.54
2018-05-29T11:32:54.411Z,95212.89
2018-05-29T11:35:22.976Z,95216.69
2018-05-29T11:37:51.548Z,95215.75
2018-05-29T11:40:20.127Z,95217.70
2018-05-29T11:42:48.723Z,95213.97
2018-05-29T11:45:17.281Z,95213.34
2018-05-29T11:47:45.872Z,95216.88
2018-05-29T11:50:14.435Z,95223.75
2018-05-29T11:52:43.039Z,95223.56
2018-05-29T11:55:11.586Z,95229.64
2018-05-29T11:57:40.346Z,95229.06
2018-05-29T12:00:08.931Z,95231.56
2018-05-29T12:02:37.203Z,95228.47
2018-05-29T12:05:05.442Z,95224.94
2018-05-29T12:07:34.078Z,95225.24
2018-05-29T12:10:02.639Z,95215.23
2018-05-29T12:12:30.857Z,95228.94
2018-05-29T12:14:59.420Z,95220.34
2018-05-29T12:17:27.977Z,95224.22
2018-05-29T12:19:56.531Z,95223.59
2018-05-29T12:22:25.155Z,95216.20
2018-05-29T12:24:53.854Z,95224.05
2018-05-29T12:27:22.441Z,95226.06
2018-05-29T12:29:50.987Z,95219.17
2018-05-29T12:32:19.576Z,95224.45
2018-05-29T12:34:48.182Z,95223.92
2018-05-29T12:37:16.754Z,95215.53
2018-05-29T12:39:45.309Z,95220.50
2018-05-29T12:42:13.871Z,95211.84
2018-05-29T12:44:42.437Z,95213.09
2018-05-29T12:47:11.000Z,95207.55
2018-05-29T12:49:39.543Z,95204.88
2018-05-29T12:52:08.105Z,95211.54
2018-05-29T12:54:36.692Z,95200.38
2018-05-29T12:57:05.267Z,95193.54
2018-05-29T12:59:33.818Z,95202.17
2018-05-29T13:02:02.368Z,95187.23
2018-05-29T13:04:30.916Z,95196.21
2018-05-29T13:06:59.475Z,95182.81
2018-05-29T13:09:28.022Z,95194.66
2018-05-29T13:11:56.575Z,95191.93
2018-05-29T13:14:25.127Z,95192.26
2018-05-29T13:16:53.691Z,95186.86
2018-05-29T13:19:22.265Z,95185.14
2018-05-29T13:21:50.827Z,95178.59
2018-05-29T13:24:19.386Z,95181.00
2018-05-29T13:26:47.974Z,95184.70
2018-05-29T13:29:16.533Z,95177.63
2018-05-29T13:31:45.083Z,95184.86
2018-05-29T13:34:13.642Z,95169.23
2018-05-29T13:36:42.269Z,95166.48
2018-05-29T13:39:10.885Z,95178.83
2018-05-29T13:41:39.596Z,95185.13
2018-05-29T13:44:08.149Z,95181.66
2018-05-29T13:46:36.708Z,95180.98
2018-05-29T13:49:05.051Z,95178.39
2018-05-29T13:51:33.624Z,95194.94
2018-05-29T13:54:02.201Z,95174.57
2018-05-29T13:56:30.768Z,95168.47
2018-05-29T13:58:59.326Z,95170.06
2018-05-29T14:01:27.892Z,95173.97
2018-05-29T14:03:56.472Z,95166.33
2018-05-29T14:06:24.716Z,95166.60
2018-05-29T14:08:53.301Z,95170.05
2018-05-29T14:11:22.036Z,95166.45
2018-05-29T14:13:50.598Z,95172.36
2018-05-29T14:16:19.150Z,95171.20
2018-05-29T14:18:47.729Z,95174.02
2018-05-29T14:21:16.295Z,95176.96
2018-05-29T14:23:44.847Z,95170.20
2018-05-29T14:26:13.428Z,95165.52
2018-05-29T14:28:41.982Z,95160.08
2018-05-29T14:31:10.534Z,95161.37
2018-05-29T14:33:39.091Z,95159.43
2018-05-29T14:36:07.688Z,95151.96
2018-05-29T14:38:36.234Z,95160.06
2018-05-29T14:41:04.783Z,95154.30
2018-05-29T14:43:33.385Z,95149.26
2018-05-29T14:46:01.944Z,95148.33
2018-05-29T14:48:30.499Z,95142.64
2018-05-29T14:50:59.040Z,95150.50
2018-05-29T14:53:27.594Z,95133.93
2018-05-29T14:55:56.188Z,95139.77
2018-05-29T14:58:24.739Z,95131.89
2018-05-29T15:00:53.334Z,95132.32
2018-05-29T15:03:21.888Z,95127.81
2018-05-29T15:05:50.453Z,95133.40
2018-05-29T15:08:19.020Z,95130.02
2018-05-29T15:10:47.584Z,95134.10
2018-05-29T15:13:16.175Z,95132.13
2018-05-29T15:15:45.675Z,95125.72
2018-05-29T15:18:14.242Z,95136.34
2018-05-29T15:20:42.854Z,95128.61
2018-05-29T15:23:11.443Z,95116.70
2018-05-29T15:25:39.684Z,95123.48
2018-05-29T15:28:08.289Z,95112.19
2018-05-29T15:30:36.885Z,95106.56
2018-05-29T15:33:05.452Z,95114.92
2018-05-29T15:35:34.023Z,95118.51
2018-05-29T15:38:02.575Z,95110.34
2018-05-29T15:40:31.131Z,95104.69
2018-05-29T15:42:59.687Z,95104.55
2018-05-29T15:45:28.232Z,95103.25
2018-05-29T15:47:56.827Z,95107.94
2018-05-29T15:50:25.403Z,95102.34
2018-05-29T15:52:53.985Z,95098.16
2018-05-29T15:55:22.538Z,95104.35
2018-05-29T15:57:51.127Z,95091.37
2018-05-29T16:00:19.716Z,95099.94
2018-05-29T16:02:48.291Z,95100.73
2018-05-29T16:05:16.892Z,95100.37
2018-05-29T16:07:45.444Z,95093.14
2018-05-29T16:10:13.998Z,95096.08
2018-05-29T16:12:42.563Z,95094.48
2018-05-29T16:15:12.271Z,95092.23
2018-05-29T16:17:40.833Z,95101.67
2018-05-29T16:20:09.387Z,95106.38
2018-05-29T16:22:37.952Z,95108.55
2018-05-29T16:25:06.551Z,95110.96
2018-05-29T16:27:35.331Z,95096.15
2018-05-29T16:30:04.671Z,95103.38
2018-05-29T16:32:33.292Z,95104.05
2018-05-29T16:35:01.855Z,95106.44
2018-05-29T16:37:30.403Z,95106.06
2018-05-29T16:39:58.959Z,95101.38
2018-05-29T16:42:27.515Z,95096.84
2018-05-29T16:44:56.087Z,95106.20
2018-05-29T16:47:24.630Z,95099.53
2018-05-29T16:49:53.192Z,95101.52
2018-05-29T16:52:21.765Z,95096.30
2018-05-29T16:54:50.310Z,95096.55
2018-05-29T16:57:19.694Z,95099.79
2018-05-29T16:59:48.258Z,95100.02
2018-05-29T17:02:16.814Z,95104.83
2018-05-29T17:04:45.446Z,95109.91
2018-05-29T17:07:14.201Z,95108.17
2018-05-29T17:09:42.862Z,95113.00
2018-05-29T17:12:11.447Z,95107.38
2018-05-29T17:14:40.035Z,95110.17
2018-05-29T17:17:08.625Z,95102.68
2018-05-29T17:19:37.170Z,95108.03
2018-05-29T17:22:05.723Z,95114.72
2018-05-29T17:24:34.276Z,95111.63
2018-05-29T17:27:02.868Z,95112.84
2018-05-29T17:29:31.427Z,95116.59
2018-05-29T17:31:59.994Z,95115.87
2018-05-29T17:34:28.753Z,95110.17
2018-05-29T17:36:57.309Z,95107.20
2018-05-29T17:39:25.863Z,95115.60
2018-05-29T17:41:54.506Z,95121.75
2018-05-29T17:44:23.068Z,95122.67
2018-05-29T17:46:51.615Z,95123.98
2018-05-29T17:49:20.177Z,95131.16
2018-05-29T17:51:48.781Z,95122.01
2018-05-29T17:54:17.371Z,95129.61
2018-05-29T17:56:45.931Z,95128.11
2018-05-29T17:59:14.510Z,95141.61
2018-05-29T18:01:43.114Z,95139.84
2018-05-29T18:04:11.714Z,95143.57
2018-05-29T18:06:40.266Z,95137.55
2018-05-29T18:09:08.906Z,95137.25
2018-05-29T18:11:37.466Z,95143.13
2018-05-29T18:14:06.077Z,95147.00
2018-05-29T18:16:34.839Z,95144.59
2018-05-29T18:19:03.436Z,95152.42
2018-05-29T18:21:32.015Z,95149.48
2018-05-29T18:24:00.584Z,95153.61
2018-05-29T18:26:29.171Z,95158.25
2018-05-29T18:28:57.763Z,95163.05
2018-05-29T18:31:26.372Z,95154.09
2018-05-29T18:33:54.927Z,95158.38
2018-05-29T18:36:23.489Z,95172.39
2018-05-29T18:38:52.049Z,95170.94
2018-05-29T18:41:20.623Z,95176.67
2018-05-29T18:43:48.873Z,95176.12
2018-05-29T18:46:17.439Z,95181.56
2018-05-29T18:48:46.007Z,95184.28
2018-05-29T18:51:14.568Z,95185.31
2018-05-29T18:53:42.900Z,95183.96
2018-05-29T18:56:11.467Z,95190.02
2018-05-29T18:58:40.019Z,95191.02
2018-05-29T19:01:08.589Z,95198.13
2018-05-29T19:03:37.218Z,95195.18
2018-05-29T19:06:05.928Z,95201.81
2018-05-29T19:08:34.534Z,95204.02
2018-05-29T19:11:03.094Z,95202.09
2018-05-29T19:13:31.667Z,95205.53
2018-05-29T19:16:00.231Z,95194.75
2018-05-29T19:18:28.798Z,95199.02
2018-05-29T19:20:57.374Z,95204.32
2018-05-29T19:23:25.939Z,95206.22
2018-05-29T19:25:54.500Z,95209.74
2018-05-29T19:28:23.070Z,95212.05
2018-05-29T19:30:51.630Z,95215.37
2018-05-29T19:33:20.239Z,95214.37
2018-05-29T19:35:48.799Z,95215.33
2018-05-29T19:38:17.356Z,95212.83
2018-05-29T19:40:45.922Z,95216.11
2018-05-29T19:43:14.489Z,95218.48
2018-05-29T19:45:43.048Z,95218.94
2018-05-29T19:48:11.631Z,95217.48
2018-05-29T19:50:40.194Z,95223.98
2018-05-29T19:53:08.752Z,95220.53
2018-05-29T19:55:37.368Z,95218.11
2018-05-29T19:58:05.952Z,95227.51
2018-05-29T20:00:34.564Z,95223.31
2018-05-29T20:03:03.182Z,95221.37
2018-05-29T20:05:31.936Z,95227.10
2018-05-29T20:08:00.507Z,95220.97
2018-05-29T20:10:29.127Z,95225.84
2018-05-29T20:12:57.860Z,95223.92
2018-05-29T20:15:26.420Z,95222.14
2018-05-29T20:17:54.987Z,95226.02
2018-05-29T20:20:23.547Z,95225.05
2018-05-29T20:22:52.153Z,95223.95
2018-05-29T20:25:20.733Z,95219.56
2018-05-29T20:27:49.353Z,95227.09
2018-05-29T20:30:18.036Z,95223.59
2018-05-29T20:32:46.606Z,95224.23
2018-05-29T20:35:15.244Z,95223.14
2018-05-29T20:37:43.811Z,95217.78
2018-05-29T20:40:12.380Z,95218.02
2018-05-29T20:42:40.940Z,95219.02
2018-05-29T20:45:09.512Z,95218.33
2018-05-29T20:47:38.719Z,95220.59
2018-05-29T20:50:07.326Z,95220.64
2018-05-29T20:52:36.039Z,95219.95
2018-05-29T20:55:03.967Z,95222.25
2018-05-29T20:57:32.531Z,95219.30
2018-05-29T21:00:01.094Z,95217.29
2018-05-29T21:02:29.654Z,95218.50
2018-05-29T21:04:58.218Z,95210.55
2018-05-29T21:07:27.298Z,95212.48
2018-05-29T21:09:55.903Z,95201.27
2018-05-29T21:12:24.475Z,95203.81
2018-05-29T21:14:53.075Z,95199.70
2018-05-29T21:17:21.625Z,95203.00
2018-05-29T21:19:50.197Z,95205.70
2018-05-29T21:22:18.809Z,95199.50
2018-05-29T21:24:47.509Z,95207.23
2018-05-29T21:27:16.063Z,95209.13
2018-05-29T21:29:44.647Z,95206.47
2018-05-29T21:32:13.212Z,95207.60
2018-05-29T21:34:41.776Z,95197.72
2018-05-29T21:37:10.342Z,95201.30
2018-05-29T21:39:38.891Z,95207.97
2018-05-29T21:42:07.461Z,95200.67
2018-05-29T21:44:36.011Z,95192.80
2018-05-29T21:47:04.559Z,95198.36
2018-05-29T21:49:33.150Z,95193.08
2018-05-29T21:52:01.699Z,95193.08
2018-05-29T21:54:30.253Z,95191.57
2018-05-29T21:56:58.806Z,95195.08
2018-05-29T21:59:27.364Z,95195.30
2018-05-29T22:01:55.920Z,95192.13
2018-05-29T22:04:24.470Z,95196.88
2018-05-29T22:06:53.072Z,95195.78
2018-05-29T22:09:21.624Z,95186.83
2018-05-29T22:11:50.178Z,95182.20
2018-05-29T22:14:18.787Z,95185.20
2018-05-29T22:16:47.334Z,95183.87
2018-05-29T22:19:15.890Z,95178.68
2018-05-29T22:21:44.441Z,95179.73
2018-05-29T22:24:13.023Z,95172.83
2018-05-29T22:26:41.570Z,95175.67
2018-05-29T22:29:10.122Z,95177.72
2018-05-29T22:31:38.703Z,95172.17
2018-05-29T22:34:07.262Z,95177.12
2018-05-29T22:36:35.867Z,95169.65
2018-05-29T22:39:03.542Z,95169.36
2018-05-29T22:41:32.139Z,95168.72
2018-05-29T22:44:00.514Z,95167.88
2018-05-29T22:46:29.059Z,95160.87
2018-05-29T22:48:57.602Z,95169.14
2018-05-29T22:51:26.148Z,95164.52
2018-05-29T22:53:54.702Z,95159.08
2018-05-29T22:56:23.251Z,95158.20
2018-05-29T22:58:51.799Z,95151.50
2018-05-29T23:01:20.382Z,95154.75
2018-05-29T23:03:48.975Z,95147.35
2018-05-29T23:06:17.525Z,95148.30
2018-05-29T23:08:46.120Z,95152.34
2018-05-29T23:11:14.675Z,95148.55
2018-05-29T23:13:43.268Z,95148.03
2018-05-29T23:16:11.857Z,95143.36
2018-05-29T23:18:40.433Z,95147.73
2018-05-29T23:21:09.027Z,95139.59
2018-05-29T23:23:37.582Z,95142.67
2018-05-29T23:26:06.171Z,95140.64
2018-05-29T23:28:34.732Z,95139.21
2018-05-29T23:31:03.345Z,95139.67
2018-05-29T23:33:31.958Z,95137.48
2018-05-29T23:36:00.509Z,95134.14
2018-05-29T23:38:29.071Z,95132.81
2018-05-29T23:40:57.636Z,95128.64
2018-05-29T23:43:26.231Z,95126.25
2018-05-29T23:45:54.789Z,95133.80
2018-05-29T23:48:23.350Z,95133.86
2018-05-29T23:50:51.951Z,95132.48
2018-05-29T23:53:20.511Z,95129.02
2018-05-29T23:55:49.103Z,95133.45
2018-05-29T23:58:17.654Z,95135.88
